sensor_id;sensor_type;location;lat;lon;timestamp;temperature;humidity
66962;HTU21D;53897;51.126;5.868;2023-04-15T00:01:24;23.06;41.81
66962;HTU21D;53897;51.126;5.868;2023-04-15T00:03:51;23.06;41.76
66962;HTU21D;53897;51.126;5.868;2023-04-15T00:06:18;23.05;41.71
66962;HTU21D;53897;51.126;5.868;2023-04-15T00:08:47;23.02;41.65
66962;HTU21D;53897;51.126;5.868;2023-04-15T00:11:13;23.01;41.65
66962;HTU21D;53897;51.126;5.868;2023-04-15T00:13:39;23.00;41.58
66962;HTU21D;53897;51.126;5.868;2023-04-15T00:16:07;23.00;41.58
66962;HTU21D;53897;51.126;5.868;2023-04-15T00:18:34;22.98;41.55
66962;HTU21D;53897;51.126;5.868;2023-04-15T00:21:00;22.96;41.56
66962;HTU21D;53897;51.126;5.868;2023-04-15T00:23:26;22.96;41.55
66962;HTU21D;53897;51.126;5.868;2023-04-15T00:25:52;22.97;41.51
66962;HTU21D;53897;51.126;5.868;2023-04-15T00:28:18;22.95;41.49
66962;HTU21D;53897;51.126;5.868;2023-04-15T00:30:44;22.93;41.47
66962;HTU21D;53897;51.126;5.868;2023-04-15T00:33:11;22.92;41.44
66962;HTU21D;53897;51.126;5.868;2023-04-15T00:35:37;22.91;41.42
66962;HTU21D;53897;51.126;5.868;2023-04-15T00:38:04;22.90;41.42
66962;HTU21D;53897;51.126;5.868;2023-04-15T00:40:30;22.88;41.39
66962;HTU21D;53897;51.126;5.868;2023-04-15T00:42:55;22.87;41.39
66962;HTU21D;53897;51.126;5.868;2023-04-15T00:45:21;22.87;41.39
66962;HTU21D;53897;51.126;5.868;2023-04-15T00:47:48;22.85;41.34
66962;HTU21D;53897;51.126;5.868;2023-04-15T00:50:13;22.83;41.31
66962;HTU21D;53897;51.126;5.868;2023-04-15T00:52:40;22.84;41.30
66962;HTU21D;53897;51.126;5.868;2023-04-15T00:55:06;22.83;41.26
66962;HTU21D;53897;51.126;5.868;2023-04-15T00:57:32;22.81;41.24
66962;HTU21D;53897;51.126;5.868;2023-04-15T00:59:59;22.81;41.23
66962;HTU21D;53897;51.126;5.868;2023-04-15T01:02:25;22.80;41.22
66962;HTU21D;53897;51.126;5.868;2023-04-15T01:04:51;22.78;41.20
66962;HTU21D;53897;51.126;5.868;2023-04-15T01:07:17;22.78;41.21
66962;HTU21D;53897;51.126;5.868;2023-04-15T01:09:44;22.78;41.21
66962;HTU21D;53897;51.126;5.868;2023-04-15T01:12:13;22.76;41.24
66962;HTU21D;53897;51.126;5.868;2023-04-15T01:14:40;22.75;41.21
66962;HTU21D;53897;51.126;5.868;2023-04-15T01:17:05;22.76;41.16
66962;HTU21D;53897;51.126;5.868;2023-04-15T01:19:32;22.71;41.23
66962;HTU21D;53897;51.126;5.868;2023-04-15T01:21:58;22.70;41.26
66962;HTU21D;53897;51.126;5.868;2023-04-15T01:24:25;22.70;41.27
66962;HTU21D;53897;51.126;5.868;2023-04-15T01:26:53;22.69;41.27
66962;HTU21D;53897;51.126;5.868;2023-04-15T01:29:19;22.67;41.29
66962;HTU21D;53897;51.126;5.868;2023-04-15T01:31:50;22.67;41.28
66962;HTU21D;53897;51.126;5.868;2023-04-15T01:34:35;22.66;41.33
66962;HTU21D;53897;51.126;5.868;2023-04-15T01:37:19;22.64;41.30
66962;HTU21D;53897;51.126;5.868;2023-04-15T01:39:45;22.63;41.27
66962;HTU21D;53897;51.126;5.868;2023-04-15T01:42:11;22.63;41.25
66962;HTU21D;53897;51.126;5.868;2023-04-15T01:44:38;22.62;41.23
66962;HTU21D;53897;51.126;5.868;2023-04-15T01:47:05;22.60;41.23
66962;HTU21D;53897;51.126;5.868;2023-04-15T01:49:32;22.60;41.17
66962;HTU21D;53897;51.126;5.868;2023-04-15T01:52:00;22.58;41.17
66962;HTU21D;53897;51.126;5.868;2023-04-15T01:54:27;22.57;41.16
66962;HTU21D;53897;51.126;5.868;2023-04-15T01:56:54;22.55;41.18
66962;HTU21D;53897;51.126;5.868;2023-04-15T01:59:22;22.56;41.20
66962;HTU21D;53897;51.126;5.868;2023-04-15T02:01:49;22.55;41.17
66962;HTU21D;53897;51.126;5.868;2023-04-15T02:04:16;22.52;41.17
66962;HTU21D;53897;51.126;5.868;2023-04-15T02:06:43;22.52;41.17
66962;HTU21D;53897;51.126;5.868;2023-04-15T02:09:11;22.50;41.13
66962;HTU21D;53897;51.126;5.868;2023-04-15T02:11:37;22.49;41.17
66962;HTU21D;53897;51.126;5.868;2023-04-15T02:14:05;22.49;41.16
66962;HTU21D;53897;51.126;5.868;2023-04-15T02:16:32;22.49;41.18
66962;HTU21D;53897;51.126;5.868;2023-04-15T02:19:00;22.47;41.17
66962;HTU21D;53897;51.126;5.868;2023-04-15T02:21:27;22.46;41.16
66962;HTU21D;53897;51.126;5.868;2023-04-15T02:23:54;22.44;41.14
66962;HTU21D;53897;51.126;5.868;2023-04-15T02:26:22;22.43;41.10
66962;HTU21D;53897;51.126;5.868;2023-04-15T02:28:50;22.42;41.10
66962;HTU21D;53897;51.126;5.868;2023-04-15T02:31:17;22.41;41.07
66962;HTU21D;53897;51.126;5.868;2023-04-15T02:33:44;22.41;41.04
66962;HTU21D;53897;51.126;5.868;2023-04-15T02:36:12;22.39;41.05
66962;HTU21D;53897;51.126;5.868;2023-04-15T02:38:39;22.39;41.03
66962;HTU21D;53897;51.126;5.868;2023-04-15T02:41:09;22.38;41.03
66962;HTU21D;53897;51.126;5.868;2023-04-15T02:43:37;22.37;41.00
66962;HTU21D;53897;51.126;5.868;2023-04-15T02:46:05;22.37;40.97
66962;HTU21D;53897;51.126;5.868;2023-04-15T02:48:32;22.34;40.95
66962;HTU21D;53897;51.126;5.868;2023-04-15T02:51:18;22.33;40.94
66962;HTU21D;53897;51.126;5.868;2023-04-15T02:53:46;22.32;40.93
66962;HTU21D;53897;51.126;5.868;2023-04-15T02:56:15;22.32;40.93
66962;HTU21D;53897;51.126;5.868;2023-04-15T02:58:43;22.31;40.91
66962;HTU21D;53897;51.126;5.868;2023-04-15T03:01:11;22.29;40.87
66962;HTU21D;53897;51.126;5.868;2023-04-15T03:03:38;22.28;40.85
66962;HTU21D;53897;51.126;5.868;2023-04-15T03:06:05;22.27;40.82
66962;HTU21D;53897;51.126;5.868;2023-04-15T03:08:32;22.27;40.84
66962;HTU21D;53897;51.126;5.868;2023-04-15T03:11:00;22.26;40.81
66962;HTU21D;53897;51.126;5.868;2023-04-15T03:13:28;22.24;40.82
66962;HTU21D;53897;51.126;5.868;2023-04-15T03:15:57;22.24;40.83
66962;HTU21D;53897;51.126;5.868;2023-04-15T03:18:24;22.24;40.75
66962;HTU21D;53897;51.126;5.868;2023-04-15T03:20:51;22.22;40.80
66962;HTU21D;53897;51.126;5.868;2023-04-15T03:23:18;22.21;40.78
66962;HTU21D;53897;51.126;5.868;2023-04-15T03:25:46;22.21;40.76
66962;HTU21D;53897;51.126;5.868;2023-04-15T03:28:13;22.19;40.75
66962;HTU21D;53897;51.126;5.868;2023-04-15T03:30:40;22.18;40.72
66962;HTU21D;53897;51.126;5.868;2023-04-15T03:33:07;22.19;40.71
66962;HTU21D;53897;51.126;5.868;2023-04-15T03:35:35;22.17;40.70
66962;HTU21D;53897;51.126;5.868;2023-04-15T03:38:02;22.16;40.68
66962;HTU21D;53897;51.126;5.868;2023-04-15T03:40:30;22.14;40.68
66962;HTU21D;53897;51.126;5.868;2023-04-15T03:42:57;22.14;40.67
66962;HTU21D;53897;51.126;5.868;2023-04-15T03:45:24;22.12;40.70
66962;HTU21D;53897;51.126;5.868;2023-04-15T03:47:51;22.12;40.85
66962;HTU21D;53897;51.126;5.868;2023-04-15T03:50:18;22.11;40.67
66962;HTU21D;53897;51.126;5.868;2023-04-15T03:52:45;22.10;40.79
66962;HTU21D;53897;51.126;5.868;2023-04-15T03:55:12;22.08;41.04
66962;HTU21D;53897;51.126;5.868;2023-04-15T03:57:39;22.05;41.19
66962;HTU21D;53897;51.126;5.868;2023-04-15T04:00:07;22.05;41.26
66962;HTU21D;53897;51.126;5.868;2023-04-15T04:02:40;22.01;41.36
66962;HTU21D;53897;51.126;5.868;2023-04-15T04:05:07;21.98;41.45
66962;HTU21D;53897;51.126;5.868;2023-04-15T04:07:34;21.95;41.53
66962;HTU21D;53897;51.126;5.868;2023-04-15T04:10:01;21.94;41.62
66962;HTU21D;53897;51.126;5.868;2023-04-15T04:12:29;21.92;41.63
66962;HTU21D;53897;51.126;5.868;2023-04-15T04:14:56;21.94;41.53
66962;HTU21D;53897;51.126;5.868;2023-04-15T04:17:23;21.93;41.58
66962;HTU21D;53897;51.126;5.868;2023-04-15T04:19:50;21.94;41.58
66962;HTU21D;53897;51.126;5.868;2023-04-15T04:22:21;21.91;41.65
66962;HTU21D;53897;51.126;5.868;2023-04-15T04:24:49;21.89;41.74
66962;HTU21D;53897;51.126;5.868;2023-04-15T04:27:16;21.89;41.75
66962;HTU21D;53897;51.126;5.868;2023-04-15T04:29:43;21.88;41.81
66962;HTU21D;53897;51.126;5.868;2023-04-15T04:32:10;21.82;41.87
66962;HTU21D;53897;51.126;5.868;2023-04-15T04:34:37;21.82;41.92
66962;HTU21D;53897;51.126;5.868;2023-04-15T04:37:04;21.82;41.94
66962;HTU21D;53897;51.126;5.868;2023-04-15T04:39:31;21.80;41.98
66962;HTU21D;53897;51.126;5.868;2023-04-15T04:41:58;21.78;42.03
66962;HTU21D;53897;51.126;5.868;2023-04-15T04:44:25;21.76;42.07
66962;HTU21D;53897;51.126;5.868;2023-04-15T04:46:52;21.76;42.05
66962;HTU21D;53897;51.126;5.868;2023-04-15T04:49:19;21.79;42.00
66962;HTU21D;53897;51.126;5.868;2023-04-15T04:51:47;21.81;41.95
66962;HTU21D;53897;51.126;5.868;2023-04-15T04:54:14;21.82;41.90
66962;HTU21D;53897;51.126;5.868;2023-04-15T04:56:41;21.83;41.87
66962;HTU21D;53897;51.126;5.868;2023-04-15T04:59:08;21.87;41.81
66962;HTU21D;53897;51.126;5.868;2023-04-15T05:01:35;21.85;41.77
66962;HTU21D;53897;51.126;5.868;2023-04-15T05:04:02;21.88;41.74
66962;HTU21D;53897;51.126;5.868;2023-04-15T05:06:30;21.85;41.72
66962;HTU21D;53897;51.126;5.868;2023-04-15T05:08:58;21.84;41.74
66962;HTU21D;53897;51.126;5.868;2023-04-15T05:11:25;21.82;41.80
66962;HTU21D;53897;51.126;5.868;2023-04-15T05:13:52;21.84;41.80
66962;HTU21D;53897;51.126;5.868;2023-04-15T05:16:19;21.84;41.83
66962;HTU21D;53897;51.126;5.868;2023-04-15T05:18:46;21.81;41.90
66962;HTU21D;53897;51.126;5.868;2023-04-15T05:21:13;21.80;41.99
66962;HTU21D;53897;51.126;5.868;2023-04-15T05:23:40;21.81;42.04
66962;HTU21D;53897;51.126;5.868;2023-04-15T05:26:07;21.82;42.05
66962;HTU21D;53897;51.126;5.868;2023-04-15T05:28:34;21.85;41.88
66962;HTU21D;53897;51.126;5.868;2023-04-15T05:31:01;21.89;41.82
66962;HTU21D;53897;51.126;5.868;2023-04-15T05:33:28;21.90;41.95
66962;HTU21D;53897;51.126;5.868;2023-04-15T05:35:55;21.92;42.03
66962;HTU21D;53897;51.126;5.868;2023-04-15T05:38:22;21.96;42.02
66962;HTU21D;53897;51.126;5.868;2023-04-15T05:40:49;21.98;42.02
66962;HTU21D;53897;51.126;5.868;2023-04-15T05:43:16;22.02;42.02
66962;HTU21D;53897;51.126;5.868;2023-04-15T05:45:43;22.06;41.86
66962;HTU21D;53897;51.126;5.868;2023-04-15T05:48:10;22.06;41.70
66962;HTU21D;53897;51.126;5.868;2023-04-15T05:50:40;22.07;41.58
66962;HTU21D;53897;51.126;5.868;2023-04-15T05:53:08;22.08;41.49
66962;HTU21D;53897;51.126;5.868;2023-04-15T05:55:35;22.09;41.42
66962;HTU21D;53897;51.126;5.868;2023-04-15T05:58:02;22.09;41.31
66962;HTU21D;53897;51.126;5.868;2023-04-15T06:00:29;22.11;41.23
66962;HTU21D;53897;51.126;5.868;2023-04-15T06:02:56;22.10;41.13
66962;HTU21D;53897;51.126;5.868;2023-04-15T06:05:24;22.11;41.02
66962;HTU21D;53897;51.126;5.868;2023-04-15T06:07:51;22.10;41.00
66962;HTU21D;53897;51.126;5.868;2023-04-15T06:10:18;22.10;40.89
66962;HTU21D;53897;51.126;5.868;2023-04-15T06:12:45;22.10;40.88
66962;HTU21D;53897;51.126;5.868;2023-04-15T06:15:12;22.10;40.84
66962;HTU21D;53897;51.126;5.868;2023-04-15T06:17:39;22.11;40.84
66962;HTU21D;53897;51.126;5.868;2023-04-15T06:20:06;22.11;40.88
66962;HTU21D;53897;51.126;5.868;2023-04-15T06:22:36;22.10;41.20
66962;HTU21D;53897;51.126;5.868;2023-04-15T06:25:03;22.09;41.38
66962;HTU21D;53897;51.126;5.868;2023-04-15T06:27:30;22.10;41.44
66962;HTU21D;53897;51.126;5.868;2023-04-15T06:29:57;22.10;41.29
66962;HTU21D;53897;51.126;5.868;2023-04-15T06:32:24;22.10;41.36
66962;HTU21D;53897;51.126;5.868;2023-04-15T06:34:51;22.10;41.45
66962;HTU21D;53897;51.126;5.868;2023-04-15T06:37:18;22.10;41.44
66962;HTU21D;53897;51.126;5.868;2023-04-15T06:39:45;22.10;41.40
66962;HTU21D;53897;51.126;5.868;2023-04-15T06:42:13;22.08;41.52
66962;HTU21D;53897;51.126;5.868;2023-04-15T06:44:40;22.04;41.76
66962;HTU21D;53897;51.126;5.868;2023-04-15T06:47:07;22.01;41.92
66962;HTU21D;53897;51.126;5.868;2023-04-15T06:49:34;21.98;42.08
66962;HTU21D;53897;51.126;5.868;2023-04-15T06:52:01;21.98;42.29
66962;HTU21D;53897;51.126;5.868;2023-04-15T06:54:28;21.98;42.44
66962;HTU21D;53897;51.126;5.868;2023-04-15T06:56:55;22.03;42.62
66962;HTU21D;53897;51.126;5.868;2023-04-15T06:59:22;22.07;42.14
66962;HTU21D;53897;51.126;5.868;2023-04-15T07:01:49;22.10;41.20
66962;HTU21D;53897;51.126;5.868;2023-04-15T07:04:16;22.13;40.95
66962;HTU21D;53897;51.126;5.868;2023-04-15T07:06:43;22.19;40.93
66962;HTU21D;53897;51.126;5.868;2023-04-15T07:09:10;22.22;40.90
66962;HTU21D;53897;51.126;5.868;2023-04-15T07:11:37;22.25;40.90
66962;HTU21D;53897;51.126;5.868;2023-04-15T07:14:04;22.28;40.94
66962;HTU21D;53897;51.126;5.868;2023-04-15T07:16:32;22.32;40.92
66962;HTU21D;53897;51.126;5.868;2023-04-15T07:18:59;22.35;40.90
66962;HTU21D;53897;51.126;5.868;2023-04-15T07:21:26;22.37;40.87
66962;HTU21D;53897;51.126;5.868;2023-04-15T07:23:53;22.40;40.84
66962;HTU21D;53897;51.126;5.868;2023-04-15T07:26:20;22.42;40.78
66962;HTU21D;53897;51.126;5.868;2023-04-15T07:28:47;22.46;40.84
66962;HTU21D;53897;51.126;5.868;2023-04-15T07:31:14;22.48;40.88
66962;HTU21D;53897;51.126;5.868;2023-04-15T07:33:42;22.51;40.93
66962;HTU21D;53897;51.126;5.868;2023-04-15T07:36:09;22.53;40.96
66962;HTU21D;53897;51.126;5.868;2023-04-15T07:38:36;22.57;41.07
66962;HTU21D;53897;51.126;5.868;2023-04-15T07:41:03;22.60;41.11
66962;HTU21D;53897;51.126;5.868;2023-04-15T07:43:30;22.62;41.15
66962;HTU21D;53897;51.126;5.868;2023-04-15T07:45:57;22.64;41.20
66962;HTU21D;53897;51.126;5.868;2023-04-15T07:48:26;22.67;41.20
66962;HTU21D;53897;51.126;5.868;2023-04-15T07:50:53;22.69;41.18
66962;HTU21D;53897;51.126;5.868;2023-04-15T07:53:20;22.72;41.16
66962;HTU21D;53897;51.126;5.868;2023-04-15T07:55:47;22.77;41.12
66962;HTU21D;53897;51.126;5.868;2023-04-15T07:58:14;22.80;41.16
66962;HTU21D;53897;51.126;5.868;2023-04-15T08:00:41;22.81;41.19
66962;HTU21D;53897;51.126;5.868;2023-04-15T08:03:08;22.84;41.19
66962;HTU21D;53897;51.126;5.868;2023-04-15T08:05:35;22.87;41.15
66962;HTU21D;53897;51.126;5.868;2023-04-15T08:08:02;22.92;41.17
66962;HTU21D;53897;51.126;5.868;2023-04-15T08:10:29;22.94;41.18
66962;HTU21D;53897;51.126;5.868;2023-04-15T08:12:56;22.97;41.18
66962;HTU21D;53897;51.126;5.868;2023-04-15T08:15:23;22.98;41.26
66962;HTU21D;53897;51.126;5.868;2023-04-15T08:17:50;23.01;41.32
66962;HTU21D;53897;51.126;5.868;2023-04-15T08:20:17;23.02;41.33
66962;HTU21D;53897;51.126;5.868;2023-04-15T08:22:44;23.06;41.35
66962;HTU21D;53897;51.126;5.868;2023-04-15T08:25:13;23.07;41.34
66962;HTU21D;53897;51.126;5.868;2023-04-15T08:27:40;23.11;41.36
66962;HTU21D;53897;51.126;5.868;2023-04-15T08:30:08;23.14;41.39
66962;HTU21D;53897;51.126;5.868;2023-04-15T08:32:35;23.16;41.37
66962;HTU21D;53897;51.126;5.868;2023-04-15T08:35:02;23.17;41.35
66962;HTU21D;53897;51.126;5.868;2023-04-15T08:37:29;23.20;41.31
66962;HTU21D;53897;51.126;5.868;2023-04-15T08:39:56;23.22;41.25
66962;HTU21D;53897;51.126;5.868;2023-04-15T08:42:30;23.24;41.20
66962;HTU21D;53897;51.126;5.868;2023-04-15T08:44:59;23.25;41.15
66962;HTU21D;53897;51.126;5.868;2023-04-15T08:47:29;23.28;41.10
66962;HTU21D;53897;51.126;5.868;2023-04-15T08:49:58;23.29;41.07
66962;HTU21D;53897;51.126;5.868;2023-04-15T08:52:26;23.31;41.00
66962;HTU21D;53897;51.126;5.868;2023-04-15T08:54:56;23.31;40.95
66962;HTU21D;53897;51.126;5.868;2023-04-15T08:57:26;23.32;40.91
66962;HTU21D;53897;51.126;5.868;2023-04-15T08:59:57;23.34;40.88
66962;HTU21D;53897;51.126;5.868;2023-04-15T09:02:25;23.35;40.78
66962;HTU21D;53897;51.126;5.868;2023-04-15T09:04:53;23.37;40.78
66962;HTU21D;53897;51.126;5.868;2023-04-15T09:07:20;23.38;40.75
66962;HTU21D;53897;51.126;5.868;2023-04-15T09:09:47;23.39;40.71
66962;HTU21D;53897;51.126;5.868;2023-04-15T09:12:14;23.42;40.68
66962;HTU21D;53897;51.126;5.868;2023-04-15T09:14:45;23.42;40.63
66962;HTU21D;53897;51.126;5.868;2023-04-15T09:17:18;23.44;40.60
66962;HTU21D;53897;51.126;5.868;2023-04-15T09:19:46;23.44;40.53
66962;HTU21D;53897;51.126;5.868;2023-04-15T09:22:14;23.46;40.50
66962;HTU21D;53897;51.126;5.868;2023-04-15T09:24:41;23.46;40.46
66962;HTU21D;53897;51.126;5.868;2023-04-15T09:27:09;23.49;40.46
66962;HTU21D;53897;51.126;5.868;2023-04-15T09:29:37;23.49;40.41
66962;HTU21D;53897;51.126;5.868;2023-04-15T09:32:11;23.52;40.39
66962;HTU21D;53897;51.126;5.868;2023-04-15T09:34:38;23.51;40.35
66962;HTU21D;53897;51.126;5.868;2023-04-15T09:37:05;23.52;40.36
66962;HTU21D;53897;51.126;5.868;2023-04-15T09:39:48;23.54;40.30
66962;HTU21D;53897;51.126;5.868;2023-04-15T09:42:15;23.54;40.26
66962;HTU21D;53897;51.126;5.868;2023-04-15T09:44:50;23.56;40.23
66962;HTU21D;53897;51.126;5.868;2023-04-15T09:47:30;23.56;40.19
66962;HTU21D;53897;51.126;5.868;2023-04-15T09:49:59;23.57;40.17
66962;HTU21D;53897;51.126;5.868;2023-04-15T09:52:27;23.60;40.14
66962;HTU21D;53897;51.126;5.868;2023-04-15T09:54:58;23.61;40.10
66962;HTU21D;53897;51.126;5.868;2023-04-15T09:57:35;23.62;40.09
66962;HTU21D;53897;51.126;5.868;2023-04-15T10:00:03;23.64;40.07
66962;HTU21D;53897;51.126;5.868;2023-04-15T10:02:33;23.62;40.07
66962;HTU21D;53897;51.126;5.868;2023-04-15T10:05:02;23.65;40.07
66962;HTU21D;53897;51.126;5.868;2023-04-15T10:07:29;23.66;40.02
66962;HTU21D;53897;51.126;5.868;2023-04-15T10:09:59;23.67;39.98
66962;HTU21D;53897;51.126;5.868;2023-04-15T10:12:28;23.68;39.97
66962;HTU21D;53897;51.126;5.868;2023-04-15T10:15:03;23.69;39.95
66962;HTU21D;53897;51.126;5.868;2023-04-15T10:17:32;23.70;39.92
66962;HTU21D;53897;51.126;5.868;2023-04-15T10:20:02;23.71;39.88
66962;HTU21D;53897;51.126;5.868;2023-04-15T10:22:31;23.72;39.85
66962;HTU21D;53897;51.126;5.868;2023-04-15T10:24:58;23.73;39.81
66962;HTU21D;53897;51.126;5.868;2023-04-15T10:27:26;23.75;39.77
66962;HTU21D;53897;51.126;5.868;2023-04-15T10:29:56;23.74;39.05
66962;HTU21D;53897;51.126;5.868;2023-04-15T10:32:24;23.70;38.08
66962;HTU21D;53897;51.126;5.868;2023-04-15T10:34:53;23.67;38.77
66962;HTU21D;53897;51.126;5.868;2023-04-15T10:37:24;23.69;39.14
66962;HTU21D;53897;51.126;5.868;2023-04-15T10:39:58;23.71;39.52
66962;HTU21D;53897;51.126;5.868;2023-04-15T10:42:33;23.75;39.80
66962;HTU21D;53897;51.126;5.868;2023-04-15T10:45:00;23.76;39.91
66962;HTU21D;53897;51.126;5.868;2023-04-15T10:47:27;23.80;40.02
66962;HTU21D;53897;51.126;5.868;2023-04-15T10:50:00;23.82;39.97
66962;HTU21D;53897;51.126;5.868;2023-04-15T10:52:28;23.83;39.98
66962;HTU21D;53897;51.126;5.868;2023-04-15T10:55:18;23.85;40.04
66962;HTU21D;53897;51.126;5.868;2023-04-15T10:57:45;23.87;40.15
66962;HTU21D;53897;51.126;5.868;2023-04-15T11:00:14;23.88;40.20
66962;HTU21D;53897;51.126;5.868;2023-04-15T11:05:20;23.91;40.18
66962;HTU21D;53897;51.126;5.868;2023-04-15T11:07:56;23.94;40.23
66962;HTU21D;53897;51.126;5.868;2023-04-15T11:12:57;23.95;40.11
66962;HTU21D;53897;51.126;5.868;2023-04-15T11:15:37;23.94;40.07
66962;HTU21D;53897;51.126;5.868;2023-04-15T11:18:11;23.91;40.09
66962;HTU21D;53897;51.126;5.868;2023-04-15T11:20:40;23.90;40.12
66962;HTU21D;53897;51.126;5.868;2023-04-15T11:23:08;23.90;40.22
66962;HTU21D;53897;51.126;5.868;2023-04-15T11:25:35;23.90;40.31
66962;HTU21D;53897;51.126;5.868;2023-04-15T11:28:05;23.94;40.35
66962;HTU21D;53897;51.126;5.868;2023-04-15T11:30:35;23.95;40.35
66962;HTU21D;53897;51.126;5.868;2023-04-15T11:33:05;23.92;39.61
66962;HTU21D;53897;51.126;5.868;2023-04-15T11:35:33;23.92;39.17
66962;HTU21D;53897;51.126;5.868;2023-04-15T11:38:04;23.92;39.68
66962;HTU21D;53897;51.126;5.868;2023-04-15T11:40:31;23.95;39.76
66962;HTU21D;53897;51.126;5.868;2023-04-15T11:43:10;23.96;39.85
66962;HTU21D;53897;51.126;5.868;2023-04-15T11:48:20;24.00;39.90
66962;HTU21D;53897;51.126;5.868;2023-04-15T11:50:53;24.01;39.89
66962;HTU21D;53897;51.126;5.868;2023-04-15T11:53:19;24.03;39.89
66962;HTU21D;53897;51.126;5.868;2023-04-15T11:55:47;24.04;39.87
66962;HTU21D;53897;51.126;5.868;2023-04-15T11:58:16;24.04;39.86
66962;HTU21D;53897;51.126;5.868;2023-04-15T12:03:44;24.05;39.80
66962;HTU21D;53897;51.126;5.868;2023-04-15T12:06:14;24.08;39.80
66962;HTU21D;53897;51.126;5.868;2023-04-15T12:08:59;24.06;39.78
66962;HTU21D;53897;51.126;5.868;2023-04-15T12:13:53;24.06;39.73
66962;HTU21D;53897;51.126;5.868;2023-04-15T12:16:20;24.09;39.71
66962;HTU21D;53897;51.126;5.868;2023-04-15T12:18:58;24.09;39.68
66962;HTU21D;53897;51.126;5.868;2023-04-15T12:21:26;24.09;39.69
66962;HTU21D;53897;51.126;5.868;2023-04-15T12:23:56;24.09;39.71
66962;HTU21D;53897;51.126;5.868;2023-04-15T12:26:27;24.10;39.72
66962;HTU21D;53897;51.126;5.868;2023-04-15T12:29:05;24.08;39.64
66962;HTU21D;53897;51.126;5.868;2023-04-15T12:31:32;24.09;39.55
66962;HTU21D;53897;51.126;5.868;2023-04-15T12:33:59;24.06;39.39
66962;HTU21D;53897;51.126;5.868;2023-04-15T12:36:26;24.08;39.26
66962;HTU21D;53897;51.126;5.868;2023-04-15T12:38:51;24.06;39.18
66962;HTU21D;53897;51.126;5.868;2023-04-15T12:41:19;24.06;39.12
66962;HTU21D;53897;51.126;5.868;2023-04-15T12:43:45;24.05;39.32
66962;HTU21D;53897;51.126;5.868;2023-04-15T12:46:12;24.05;39.50
66962;HTU21D;53897;51.126;5.868;2023-04-15T12:48:39;24.06;39.62
66962;HTU21D;53897;51.126;5.868;2023-04-15T12:51:05;24.09;39.68
66962;HTU21D;53897;51.126;5.868;2023-04-15T12:53:30;24.06;39.72
66962;HTU21D;53897;51.126;5.868;2023-04-15T12:55:56;24.06;39.77
66962;HTU21D;53897;51.126;5.868;2023-04-15T12:58:22;24.08;39.73
66962;HTU21D;53897;51.126;5.868;2023-04-15T13:00:48;24.08;39.69
66962;HTU21D;53897;51.126;5.868;2023-04-15T13:03:15;24.08;40.02
66962;HTU21D;53897;51.126;5.868;2023-04-15T13:05:41;24.05;39.91
66962;HTU21D;53897;51.126;5.868;2023-04-15T13:08:08;24.06;39.78
66962;HTU21D;53897;51.126;5.868;2023-04-15T13:10:36;24.05;39.78
66962;HTU21D;53897;51.126;5.868;2023-04-15T13:13:03;24.04;39.77
66962;HTU21D;53897;51.126;5.868;2023-04-15T13:15:29;24.03;39.78
66962;HTU21D;53897;51.126;5.868;2023-04-15T13:17:55;24.03;39.80
66962;HTU21D;53897;51.126;5.868;2023-04-15T13:20:21;24.02;39.79
66962;HTU21D;53897;51.126;5.868;2023-04-15T13:22:47;24.01;39.81
66962;HTU21D;53897;51.126;5.868;2023-04-15T13:25:13;24.00;39.82
66962;HTU21D;53897;51.126;5.868;2023-04-15T13:27:39;23.99;39.85
66962;HTU21D;53897;51.126;5.868;2023-04-15T13:30:05;23.99;39.85
66962;HTU21D;53897;51.126;5.868;2023-04-15T13:32:32;23.99;39.87
66962;HTU21D;53897;51.126;5.868;2023-04-15T13:34:57;23.98;39.88
66962;HTU21D;53897;51.126;5.868;2023-04-15T13:37:28;23.97;39.89
66962;HTU21D;53897;51.126;5.868;2023-04-15T13:39:55;23.97;39.88
66962;HTU21D;53897;51.126;5.868;2023-04-15T13:42:24;23.96;39.90
66962;HTU21D;53897;51.126;5.868;2023-04-15T13:44:50;23.95;39.92
66962;HTU21D;53897;51.126;5.868;2023-04-15T13:47:17;23.95;39.92
66962;HTU21D;53897;51.126;5.868;2023-04-15T13:49:43;23.92;39.85
66962;HTU21D;53897;51.126;5.868;2023-04-15T13:52:10;23.91;39.78
66962;HTU21D;53897;51.126;5.868;2023-04-15T13:54:35;23.89;39.72
66962;HTU21D;53897;51.126;5.868;2023-04-15T13:57:01;23.90;39.72
66962;HTU21D;53897;51.126;5.868;2023-04-15T13:59:27;23.90;39.72
66962;HTU21D;53897;51.126;5.868;2023-04-15T14:01:53;23.91;39.74
66962;HTU21D;53897;51.126;5.868;2023-04-15T14:04:18;23.90;39.76
66962;HTU21D;53897;51.126;5.868;2023-04-15T14:06:44;23.90;39.80
66962;HTU21D;53897;51.126;5.868;2023-04-15T14:09:10;23.90;39.85
66962;HTU21D;53897;51.126;5.868;2023-04-15T14:11:39;23.91;39.89
66962;HTU21D;53897;51.126;5.868;2023-04-15T14:14:04;23.91;39.87
66962;HTU21D;53897;51.126;5.868;2023-04-15T14:16:34;23.89;39.87
66962;HTU21D;53897;51.126;5.868;2023-04-15T14:19:01;23.90;39.89
66962;HTU21D;53897;51.126;5.868;2023-04-15T14:21:27;23.90;39.98
66962;HTU21D;53897;51.126;5.868;2023-04-15T14:23:53;23.88;40.10
66962;HTU21D;53897;51.126;5.868;2023-04-15T14:26:19;23.89;40.14
66962;HTU21D;53897;51.126;5.868;2023-04-15T14:28:45;23.89;40.14
66962;HTU21D;53897;51.126;5.868;2023-04-15T14:31:10;23.90;40.13
66962;HTU21D;53897;51.126;5.868;2023-04-15T14:33:36;23.88;40.13
66962;HTU21D;53897;51.126;5.868;2023-04-15T14:36:02;23.88;40.13
66962;HTU21D;53897;51.126;5.868;2023-04-15T14:38:28;23.87;40.12
66962;HTU21D;53897;51.126;5.868;2023-04-15T14:40:54;23.87;40.11
66962;HTU21D;53897;51.126;5.868;2023-04-15T14:43:20;23.86;40.12
66962;HTU21D;53897;51.126;5.868;2023-04-15T14:45:46;23.85;40.14
66962;HTU21D;53897;51.126;5.868;2023-04-15T14:48:12;23.83;40.15
66962;HTU21D;53897;51.126;5.868;2023-04-15T14:50:39;23.84;40.17
66962;HTU21D;53897;51.126;5.868;2023-04-15T14:53:07;23.82;40.18
66962;HTU21D;53897;51.126;5.868;2023-04-15T14:55:33;23.83;40.20
66962;HTU21D;53897;51.126;5.868;2023-04-15T14:57:59;23.82;39.97
66962;HTU21D;53897;51.126;5.868;2023-04-15T15:00:26;23.81;39.97
66962;HTU21D;53897;51.126;5.868;2023-04-15T15:02:52;23.80;39.82
66962;HTU21D;53897;51.126;5.868;2023-04-15T15:05:18;23.79;39.89
66962;HTU21D;53897;51.126;5.868;2023-04-15T15:07:44;23.79;39.89
66962;HTU21D;53897;51.126;5.868;2023-04-15T15:10:10;23.79;39.90
66962;HTU21D;53897;51.126;5.868;2023-04-15T15:12:35;23.76;39.94
66962;HTU21D;53897;51.126;5.868;2023-04-15T15:15:02;23.77;39.99
66962;HTU21D;53897;51.126;5.868;2023-04-15T15:17:29;23.79;40.05
66962;HTU21D;53897;51.126;5.868;2023-04-15T15:19:55;23.79;40.10
66962;HTU21D;53897;51.126;5.868;2023-04-15T15:22:21;23.76;40.16
66962;HTU21D;53897;51.126;5.868;2023-04-15T15:24:47;23.76;40.23
66962;HTU21D;53897;51.126;5.868;2023-04-15T15:27:12;23.77;40.36
66962;HTU21D;53897;51.126;5.868;2023-04-15T15:29:38;23.79;40.52
66962;HTU21D;53897;51.126;5.868;2023-04-15T15:32:04;23.79;40.79